Time;durP1;ratioP1;P1;durP2;ratioP2;P2;SDS_P1;SDS_P2;PMS_P1;PMS_P2;Temp;Humidity;BMP_temperature;BMP_pressure;BME280_temperature;BME280_humidity;BME280_pressure;Samples;Min_cycle;Max_cycle;Signal;HPM_P1;HPM_P2
2023/01/15 00:00:02;;;;;;;3.90;2.47;;;;;;;;;;5079833;28;20210;-62
2023/01/15 00:02:31;;;;;;;4.93;2.03;;;;;;;;;;5077237;28;20205;-62
2023/01/15 00:05:02;;;;;;;3.67;1.67;;;;;;;;;;5079097;28;20210;-62
2023/01/15 00:07:30;;;;;;;2.53;1.80;;;;;;;;;;5079272;28;20206;-62
2023/01/15 00:09:58;;;;;;;2.93;1.90;;;;;;;;;;5079153;28;20260;-62
2023/01/15 00:12:26;;;;;;;1.67;1.53;;;;;;;;;;5079488;28;20214;-62
2023/01/15 00:14:55;;;;;;;1.60;1.50;;;;;;;;;;5079728;28;20217;-62
2023/01/15 00:17:23;;;;;;;4.17;1.63;;;;;;;;;;5079176;28;20205;-62
2023/01/15 00:19:51;;;;;;;3.17;1.40;;;;;;;;;;5079483;28;20242;-62
2023/01/15 00:22:21;;;;;;;3.70;1.50;;;;;;;;;;5079110;28;20240;-62
2023/01/15 00:27:42;;;;;;;6.67;2.00;;;;;;;;;;5079149;28;20206;-62
2023/01/15 00:30:12;;;;;;;4.43;1.80;;;;;;;;;;5079313;28;20210;-62
2023/01/15 00:32:40;;;;;;;2.63;1.50;;;;;;;;;;5077596;28;20321;-62
2023/01/15 00:35:11;;;;;;;3.33;1.97;;;;;;;;;;5076807;28;20268;-62
2023/01/15 00:37:41;;;;;;;3.27;1.67;;;;;;;;;;5077272;28;20212;-62
2023/01/15 00:40:09;;;;;;;7.03;1.93;;;;;;;;;;5076933;28;20206;-62
2023/01/15 00:42:37;;;;;;;1.43;1.20;;;;;;;;;;5077128;28;20222;-62
2023/01/15 00:45:08;;;;;;;4.63;1.70;;;;;;;;;;5076800;28;20751;-62
2023/01/15 00:47:37;;;;;;;3.27;1.30;;;;;;;;;;5078344;28;20238;-62
2023/01/15 00:50:06;;;;;;;2.97;1.73;;;;;;;;;;5078758;28;20292;-62
2023/01/15 00:52:34;;;;;;;7.30;2.00;;;;;;;;;;5078572;28;20687;-62
2023/01/15 00:55:03;;;;;;;4.53;2.03;;;;;;;;;;5078365;28;20565;-62
2023/01/15 00:57:31;;;;;;;2.50;1.70;;;;;;;;;;5078478;28;20213;-62
2023/01/15 00:59:59;;;;;;;3.87;1.43;;;;;;;;;;5078833;28;20257;-62
2023/01/15 01:02:27;;;;;;;2.77;1.50;;;;;;;;;;5078236;28;20269;-61
2023/01/15 01:04:55;;;;;;;2.23;1.50;;;;;;;;;;5078292;28;20202;-62
2023/01/15 01:07:23;;;;;;;1.93;1.40;;;;;;;;;;5078263;28;20206;-62
2023/01/15 01:09:51;;;;;;;4.57;1.70;;;;;;;;;;5078336;28;20206;-62
2023/01/15 01:12:22;;;;;;;2.03;1.73;;;;;;;;;;5078115;28;20214;-62
2023/01/15 01:14:50;;;;;;;3.57;1.43;;;;;;;;;;5078551;28;20213;-62
2023/01/15 01:17:18;;;;;;;4.07;1.83;;;;;;;;;;5078098;28;20272;-62
2023/01/15 01:19:46;;;;;;;3.57;1.73;;;;;;;;;;5077857;28;20317;-62
2023/01/15 01:22:14;;;;;;;2.60;1.43;;;;;;;;;;5078250;28;20241;-62
2023/01/15 01:24:42;;;;;;;2.73;1.43;;;;;;;;;;5078168;28;20312;-62
2023/01/15 01:27:10;;;;;;;1.87;1.47;;;;;;;;;;5077985;28;20673;-62
2023/01/15 01:29:41;;;;;;;1.30;1.20;;;;;;;;;;5077984;28;20705;-62
2023/01/15 01:32:09;;;;;;;3.33;1.57;;;;;;;;;;5078204;28;20202;-62
2023/01/15 01:34:37;;;;;;;3.33;2.17;;;;;;;;;;5077687;28;20237;-62
2023/01/15 01:37:05;;;;;;;4.77;1.53;;;;;;;;;;5077862;28;20554;-62
2023/01/15 01:39:33;;;;;;;3.37;1.80;;;;;;;;;;5077578;28;20221;-62
2023/01/15 01:42:01;;;;;;;2.07;1.10;;;;;;;;;;5077995;28;20206;-62
2023/01/15 01:44:48;;;;;;;6.70;1.80;;;;;;;;;;5078028;28;20228;-62
2023/01/15 01:47:21;;;;;;;4.30;1.60;;;;;;;;;;5078021;28;20237;-62
2023/01/15 01:49:51;;;;;;;4.60;1.80;;;;;;;;;;5077905;28;20206;-62
2023/01/15 01:52:21;;;;;;;2.40;1.20;;;;;;;;;;5077655;28;20241;-62
2023/01/15 01:54:49;;;;;;;2.47;1.57;;;;;;;;;;5077454;28;20640;-62
2023/01/15 01:57:18;;;;;;;2.70;1.50;;;;;;;;;;5077951;28;20237;-62
2023/01/15 01:59:46;;;;;;;2.07;1.30;;;;;;;;;;5077758;28;20256;-62
2023/01/15 02:02:15;;;;;;;2.77;1.43;;;;;;;;;;5077628;28;20261;-62
2023/01/15 02:04:44;;;;;;;4.53;1.60;;;;;;;;;;5077684;28;20255;-62
2023/01/15 02:07:12;;;;;;;2.80;1.63;;;;;;;;;;5077782;28;20292;-62
2023/01/15 02:09:40;;;;;;;5.57;1.90;;;;;;;;;;5064172;28;20209;-62
2023/01/15 02:12:12;;;;;;;3.50;1.53;;;;;;;;;;5080573;28;20687;-62
2023/01/15 02:14:45;;;;;;;2.73;1.50;;;;;;;;;;5081850;28;20233;-62
2023/01/15 02:17:15;;;;;;;4.43;1.33;;;;;;;;;;5081908;28;20289;-62
2023/01/15 02:19:50;;;;;;;2.67;1.67;;;;;;;;;;5081432;28;20261;-62
2023/01/15 02:22:23;;;;;;;3.73;1.97;;;;;;;;;;5081672;28;20213;-63
2023/01/15 02:24:58;;;;;;;2.57;1.67;;;;;;;;;;5081255;28;20264;-62
2023/01/15 02:27:28;;;;;;;4.07;1.70;;;;;;;;;;5081377;28;20212;-62
2023/01/15 02:29:58;;;;;;;4.00;1.70;;;;;;;;;;5081470;28;20244;-62
2023/01/15 02:32:31;;;;;;;5.63;1.60;;;;;;;;;;5081524;28;20217;-62
2023/01/15 02:35:02;;;;;;;3.43;1.77;;;;;;;;;;5081003;28;20237;-62
2023/01/15 02:37:32;;;;;;;3.53;1.50;;;;;;;;;;5081321;28;20209;-62
2023/01/15 02:40:01;;;;;;;5.50;1.90;;;;;;;;;;5081100;28;20238;-62
2023/01/15 02:42:31;;;;;;;3.83;1.50;;;;;;;;;;5081316;28;20205;-62
2023/01/15 02:45:00;;;;;;;2.83;1.80;;;;;;;;;;5081300;28;20618;-62
2023/01/15 02:47:30;;;;;;;1.57;1.30;;;;;;;;;;5081301;28;20208;-62
2023/01/15 02:50:00;;;;;;;4.27;1.87;;;;;;;;;;5080857;28;20204;-62
2023/01/15 02:52:30;;;;;;;3.07;1.67;;;;;;;;;;5081147;28;20202;-62
2023/01/15 02:54:59;;;;;;;1.57;1.47;;;;;;;;;;5080852;28;20241;-62
2023/01/15 02:57:28;;;;;;;3.57;1.60;;;;;;;;;;5081174;28;20206;-62
2023/01/15 02:59:58;;;;;;;5.10;1.33;;;;;;;;;;5080947;28;20264;-62
2023/01/15 03:02:29;;;;;;;2.97;1.63;;;;;;;;;;5080778;28;20213;-62
2023/01/15 03:05:00;;;;;;;2.70;1.43;;;;;;;;;;5080862;28;20212;-62
2023/01/15 03:07:31;;;;;;;1.73;1.40;;;;;;;;;;5080642;28;20214;-62
2023/01/15 03:09:59;;;;;;;1.60;1.30;;;;;;;;;;5080397;28;20693;-62
2023/01/15 03:12:29;;;;;;;2.97;1.83;;;;;;;;;;5080707;28;20255;-62
2023/01/15 03:15:03;;;;;;;2.83;1.47;;;;;;;;;;5080864;28;20210;-62
2023/01/15 03:17:34;;;;;;;5.00;1.60;;;;;;;;;;5080787;28;20270;-62
2023/01/15 03:20:04;;;;;;;2.40;1.53;;;;;;;;;;5080341;28;20709;-62
2023/01/15 03:22:33;;;;;;;4.07;1.40;;;;;;;;;;5079229;28;20213;-62
2023/01/15 03:25:03;;;;;;;2.13;1.27;;;;;;;;;;5080690;28;20206;-62
2023/01/15 03:27:31;;;;;;;1.43;1.33;;;;;;;;;;5080569;28;20293;-62
2023/01/15 03:30:03;;;;;;;4.00;1.37;;;;;;;;;;5080477;28;20202;-62
2023/01/15 03:32:31;;;;;;;1.90;1.53;;;;;;;;;;5080152;28;20697;-62
2023/01/15 03:34:59;;;;;;;1.60;1.50;;;;;;;;;;5079911;28;20248;-62
2023/01/15 03:37:27;;;;;;;5.13;1.53;;;;;;;;;;5080408;28;20207;-62
2023/01/15 03:39:56;;;;;;;2.63;1.70;;;;;;;;;;5079728;28;20705;-62
2023/01/15 03:42:29;;;;;;;1.83;1.43;;;;;;;;;;5080167;28;20202;-62
2023/01/15 03:45:03;;;;;;;1.90;1.67;;;;;;;;;;5080170;28;20202;-62
2023/01/15 03:47:38;;;;;;;4.03;1.47;;;;;;;;;;5080052;28;20229;-62
2023/01/15 03:50:10;;;;;;;3.03;1.60;;;;;;;;;;5080152;28;20274;-62
2023/01/15 03:52:42;;;;;;;2.67;1.40;;;;;;;;;;5079716;28;20727;-62
2023/01/15 03:55:12;;;;;;;6.47;1.73;;;;;;;;;;5079827;28;20225;-62
2023/01/15 03:57:42;;;;;;;3.13;2.10;;;;;;;;;;5079991;28;20202;-62
2023/01/15 04:00:13;;;;;;;3.77;1.40;;;;;;;;;;5079630;28;20712;-62
2023/01/15 04:02:44;;;;;;;7.33;2.10;;;;;;;;;;5079738;28;20234;-62
2023/01/15 04:05:12;;;;;;;2.97;1.40;;;;;;;;;;5079818;28;20237;-62
2023/01/15 04:07:40;;;;;;;2.20;1.77;;;;;;;;;;5079557;28;20637;-62
2023/01/15 04:10:09;;;;;;;3.90;1.77;;;;;;;;;;5079515;28;20208;-62
2023/01/15 04:12:37;;;;;;;5.47;2.30;;;;;;;;;;5079344;28;20672;-62
2023/01/15 04:15:06;;;;;;;1.53;1.40;;;;;;;;;;5079451;28;20214;-62
2023/01/15 04:17:34;;;;;;;4.13;1.43;;;;;;;;;;5079345;28;20616;-62
2023/01/15 04:20:03;;;;;;;2.80;2.60;;;;;;;;;;5079425;28;20218;-62
2023/01/15 04:22:31;;;;;;;2.83;1.67;;;;;;;;;;5079184;28;20206;-62
2023/01/15 04:24:59;;;;;;;4.17;2.00;;;;;;;;;;5079258;28;20206;-62
2023/01/15 04:27:27;;;;;;;3.53;1.60;;;;;;;;;;5079084;28;20207;-62
2023/01/15 04:29:55;;;;;;;3.57;1.60;;;;;;;;;;5079226;28;20210;-62
2023/01/15 04:32:23;;;;;;;2.93;1.30;;;;;;;;;;5065776;28;20241;-62
2023/01/15 04:34:51;;;;;;;2.27;1.63;;;;;;;;;;5078434;28;20574;-62
2023/01/15 04:37:21;;;;;;;3.90;1.60;;;;;;;;;;5079313;28;20206;-62
2023/01/15 04:39:49;;;;;;;3.67;1.43;;;;;;;;;;5078834;28;20213;-62
2023/01/15 04:45:03;;;;;;;1.80;1.47;;;;;;;;;;5078939;28;20212;-62
2023/01/15 04:47:31;;;;;;;5.10;2.30;;;;;;;;;;5078827;28;20210;-62
2023/01/15 04:49:59;;;;;;;3.83;1.60;;;;;;;;;;5078886;28;20230;-62
2023/01/15 04:52:28;;;;;;;3.97;1.40;;;;;;;;;;5078884;28;20217;-62
2023/01/15 04:54:56;;;;;;;3.37;1.30;;;;;;;;;;5078629;28;20206;-62
2023/01/15 04:57:24;;;;;;;2.27;1.57;;;;;;;;;;5078232;28;20209;-62
2023/01/15 04:59:52;;;;;;;3.47;1.70;;;;;;;;;;5073079;28;20208;-62
2023/01/15 05:02:20;;;;;;;3.07;1.60;;;;;;;;;;5077836;28;20203;-62
2023/01/15 05:04:49;;;;;;;2.97;1.60;;;;;;;;;;5065436;28;20203;-62
2023/01/15 05:07:18;;;;;;;3.47;1.73;;;;;;;;;;5077406;28;20225;-62
2023/01/15 05:09:50;;;;;;;4.73;1.80;;;;;;;;;;5071785;28;20252;-62
2023/01/15 05:12:18;;;;;;;3.00;1.63;;;;;;;;;;5074029;28;20202;-62
2023/01/15 05:14:46;;;;;;;3.77;1.90;;;;;;;;;;5067816;28;20221;-62
2023/01/15 05:17:14;;;;;;;2.50;1.63;;;;;;;;;;5070510;28;20215;-62
2023/01/15 05:19:42;;;;;;;4.10;1.90;;;;;;;;;;5071712;28;20212;-62
2023/01/15 05:22:11;;;;;;;4.13;2.00;;;;;;;;;;5067380;28;20275;-60
2023/01/15 05:24:39;;;;;;;3.17;1.70;;;;;;;;;;5066894;28;20214;-62
2023/01/15 05:27:08;;;;;;;3.43;1.80;;;;;;;;;;5075351;28;20198;-62
2023/01/15 05:29:36;;;;;;;3.70;2.00;;;;;;;;;;5067812;28;20205;-62
2023/01/15 05:32:04;;;;;;;4.57;2.03;;;;;;;;;;5077061;28;20233;-62
2023/01/15 05:34:36;;;;;;;3.07;1.87;;;;;;;;;;5070744;28;20283;-62
2023/01/15 05:37:04;;;;;;;5.53;1.83;;;;;;;;;;5066002;28;20565;-62
2023/01/15 05:39:32;;;;;;;4.80;2.00;;;;;;;;;;5076475;28;20569;-62
2023/01/15 05:42:01;;;;;;;2.77;2.10;;;;;;;;;;5070788;28;20214;-62
2023/01/15 05:44:30;;;;;;;3.07;2.10;;;;;;;;;;5074759;28;20214;-62
2023/01/15 05:47:01;;;;;;;2.70;1.87;;;;;;;;;;5075962;28;20281;-62
2023/01/15 05:49:30;;;;;;;3.07;1.90;;;;;;;;;;5074633;28;20209;-61
2023/01/15 05:51:59;;;;;;;6.53;2.43;;;;;;;;;;5067414;28;20195;-62
2023/01/15 05:54:29;;;;;;;5.23;2.03;;;;;;;;;;5065853;28;20218;-61
2023/01/15 05:56:57;;;;;;;4.97;2.30;;;;;;;;;;5060745;28;20565;-61
2023/01/15 05:59:26;;;;;;;5.73;2.40;;;;;;;;;;5059851;28;20542;-61
2023/01/15 06:01:56;;;;;;;2.83;2.17;;;;;;;;;;5057704;28;20229;-61
2023/01/15 06:04:24;;;;;;;3.40;2.10;;;;;;;;;;5060008;28;20225;-62
2023/01/15 06:06:53;;;;;;;3.37;2.27;;;;;;;;;;5058966;28;20207;-62
2023/01/15 06:09:21;;;;;;;4.50;2.57;;;;;;;;;;5059334;28;20195;-62
2023/01/15 06:11:50;;;;;;;7.27;3.20;;;;;;;;;;5059429;28;20202;-61
2023/01/15 06:14:18;;;;;;;5.33;2.33;;;;;;;;;;5058360;28;20219;-61
2023/01/15 06:16:46;;;;;;;3.83;2.20;;;;;;;;;;5057637;28;20672;-61
2023/01/15 06:19:16;;;;;;;5.27;2.73;;;;;;;;;;5066202;28;20213;-62
2023/01/15 06:21:44;;;;;;;5.40;2.77;;;;;;;;;;5073912;28;20701;-62
2023/01/15 06:24:15;;;;;;;4.17;2.50;;;;;;;;;;5073178;28;20221;-62
2023/01/15 06:26:43;;;;;;;3.80;2.17;;;;;;;;;;5074064;28;20259;-62
2023/01/15 06:29:12;;;;;;;5.33;2.40;;;;;;;;;;5075160;28;20224;-62
2023/01/15 06:31:40;;;;;;;3.47;2.23;;;;;;;;;;5077534;28;20240;-62
2023/01/15 06:34:08;;;;;;;5.83;2.33;;;;;;;;;;5077023;28;20586;-61
2023/01/15 06:36:37;;;;;;;5.33;2.20;;;;;;;;;;5077511;28;20206;-62
2023/01/15 06:39:05;;;;;;;4.57;2.40;;;;;;;;;;5077109;28;20681;-62
2023/01/15 06:47:21;;;;;;;2.97;2.27;;;;;;;;;;5074707;28;20206;-62
2023/01/15 06:49:51;;;;;;;5.30;2.50;;;;;;;;;;5075237;28;20201;-62
2023/01/15 06:52:21;;;;;;;5.33;2.80;;;;;;;;;;5075838;28;20230;-61
2023/01/15 06:54:49;;;;;;;2.80;2.17;;;;;;;;;;5075829;28;20202;-62
2023/01/15 06:57:18;;;;;;;4.23;2.07;;;;;;;;;;5077633;28;20213;-61
2023/01/15 06:59:46;;;;;;;4.13;2.33;;;;;;;;;;5079524;28;20286;-61
2023/01/15 07:02:16;;;;;;;3.97;2.40;;;;;;;;;;5077269;28;20301;-61
2023/01/15 07:04:44;;;;;;;6.07;2.97;;;;;;;;;;5079481;28;20661;-62
2023/01/15 07:07:13;;;;;;;3.70;2.20;;;;;;;;;;5079296;28;20207;-62
2023/01/15 07:09:43;;;;;;;5.20;2.90;;;;;;;;;;5079185;28;20612;-61
2023/01/15 07:12:11;;;;;;;3.50;2.00;;;;;;;;;;5079439;28;20196;-64
2023/01/15 07:14:39;;;;;;;4.07;2.27;;;;;;;;;;5079145;28;20241;-62
2023/01/15 07:17:10;;;;;;;2.57;2.33;;;;;;;;;;5077823;28;20199;-63
2023/01/15 07:19:38;;;;;;;3.30;2.10;;;;;;;;;;5077356;28;20229;-63
2023/01/15 07:22:07;;;;;;;2.83;1.97;;;;;;;;;;5078839;28;20272;-64
2023/01/15 07:24:35;;;;;;;3.63;2.60;;;;;;;;;;5078480;28;20249;-63
2023/01/15 07:27:04;;;;;;;1.20;1.20;;;;;;;;;;5079191;28;20286;-64
2023/01/15 07:29:32;;;;;;;0.87;0.87;;;;;;;;;;5079973;28;20225;-63
2023/01/15 07:32:00;;;;;;;1.27;0.80;;;;;;;;;;5079310;28;20202;-63
2023/01/15 07:34:28;;;;;;;0.60;0.60;;;;;;;;;;5078568;28;20244;-63
2023/01/15 07:36:56;;;;;;;1.17;0.77;;;;;;;;;;5080001;28;20230;-63
2023/01/15 07:39:24;;;;;;;1.03;0.60;;;;;;;;;;5079324;28;20637;-61
2023/01/15 07:50:14;;;;;;;0.67;0.67;;;;;;;;;;5079800;28;20673;-61
2023/01/15 07:52:42;;;;;;;0.87;0.87;;;;;;;;;;5079774;28;20265;-61
2023/01/15 07:55:11;;;;;;;1.43;0.60;;;;;;;;;;5079577;28;20206;-61
2023/01/15 07:57:40;;;;;;;0.60;0.60;;;;;;;;;;5079771;28;20791;-61
2023/01/15 08:00:12;;;;;;;0.80;0.80;;;;;;;;;;5079672;28;20296;-61
2023/01/15 08:02:40;;;;;;;0.57;0.57;;;;;;;;;;5079744;28;20276;-61
2023/01/15 08:05:10;;;;;;;1.10;0.50;;;;;;;;;;5079779;28;20210;-61
2023/01/15 08:07:39;;;;;;;0.97;0.60;;;;;;;;;;5080051;28;20210;-62
2023/01/15 08:10:07;;;;;;;0.73;0.50;;;;;;;;;;5078623;28;20252;-61
2023/01/15 08:15:25;;;;;;;1.43;0.70;;;;;;;;;;5079375;28;20654;-62
2023/01/15 08:17:53;;;;;;;0.70;0.70;;;;;;;;;;5079122;28;20230;-62
2023/01/15 08:20:22;;;;;;;0.50;0.50;;;;;;;;;;5076392;28;20198;-62
2023/01/15 08:22:50;;;;;;;0.50;0.50;;;;;;;;;;5078672;28;20320;-62
2023/01/15 08:25:19;;;;;;;0.60;0.60;;;;;;;;;;5077747;28;20692;-62
2023/01/15 08:27:47;;;;;;;0.50;0.50;;;;;;;;;;5078237;28;20213;-62
2023/01/15 08:30:16;;;;;;;0.60;0.57;;;;;;;;;;5075425;28;20569;-62
2023/01/15 08:32:45;;;;;;;0.77;0.77;;;;;;;;;;5078014;28;20232;-62
2023/01/15 08:35:13;;;;;;;1.33;0.50;;;;;;;;;;5077842;28;20232;-62
2023/01/15 08:37:44;;;;;;;0.60;0.60;;;;;;;;;;5078556;28;20725;-62
2023/01/15 08:40:12;;;;;;;0.50;0.50;;;;;;;;;;5078346;28;20198;-62
2023/01/15 08:42:41;;;;;;;0.57;0.57;;;;;;;;;;5078915;28;20226;-61
2023/01/15 08:45:09;;;;;;;0.60;0.60;;;;;;;;;;5079034;28;20212;-62
2023/01/15 08:47:37;;;;;;;0.30;0.30;;;;;;;;;;5078841;28;20214;-61
2023/01/15 08:50:08;;;;;;;0.70;0.40;;;;;;;;;;5078929;28;20206;-60
2023/01/15 08:52:37;;;;;;;0.70;0.70;;;;;;;;;;5077472;28;20194;-61
2023/01/15 08:55:07;;;;;;;0.33;0.33;;;;;;;;;;5077182;28;20657;-62
2023/01/15 08:57:36;;;;;;;0.80;0.80;;;;;;;;;;5077337;28;20241;-62
2023/01/15 09:00:04;;;;;;;0.50;0.50;;;;;;;;;;5077612;28;20641;-62
2023/01/15 09:02:32;;;;;;;0.70;0.70;;;;;;;;;;5078432;28;20230;-62
2023/01/15 09:05:00;;;;;;;0.57;0.57;;;;;;;;;;5078593;28;20202;-62
2023/01/15 09:07:30;;;;;;;0.57;0.57;;;;;;;;;;5078278;28;20665;-62
2023/01/15 09:09:58;;;;;;;0.40;0.40;;;;;;;;;;5078012;28;20297;-62
2023/01/15 09:12:26;;;;;;;0.60;0.60;;;;;;;;;;5078322;28;20203;-62
2023/01/15 09:14:54;;;;;;;0.40;0.40;;;;;;;;;;5078191;28;20677;-62
2023/01/15 09:17:29;;;;;;;0.60;0.60;;;;;;;;;;5078353;28;20213;-62
2023/01/15 09:19:57;;;;;;;0.70;0.70;;;;;;;;;;5077938;28;20206;-63
2023/01/15 09:22:28;;;;;;;0.50;0.50;;;;;;;;;;5077868;28;20684;-63
2023/01/15 09:24:58;;;;;;;0.50;0.50;;;;;;;;;;5077804;28;20213;-62
2023/01/15 09:27:26;;;;;;;0.50;0.50;;;;;;;;;;5078223;28;20206;-62
2023/01/15 09:29:54;;;;;;;0.63;0.63;;;;;;;;;;5077798;28;20213;-62
2023/01/15 09:32:22;;;;;;;0.50;0.50;;;;;;;;;;5078093;28;20251;-63
2023/01/15 09:34:50;;;;;;;0.40;0.40;;;;;;;;;;5077599;28;20238;-62
2023/01/15 09:37:18;;;;;;;0.63;0.53;;;;;;;;;;5078296;28;20297;-62
2023/01/15 09:39:46;;;;;;;0.97;0.57;;;;;;;;;;5077500;28;20234;-62
2023/01/15 09:42:21;;;;;;;1.07;0.83;;;;;;;;;;5077732;28;20202;-62
2023/01/15 09:44:53;;;;;;;1.07;0.63;;;;;;;;;;5077932;28;20264;-62
2023/01/15 09:47:26;;;;;;;2.47;0.70;;;;;;;;;;5078004;28;20210;-62
2023/01/15 09:50:11;;;;;;;1.37;0.80;;;;;;;;;;5077526;28;20663;-62
2023/01/15 09:52:50;;;;;;;0.77;0.50;;;;;;;;;;5074056;28;20615;-63
2023/01/15 09:55:20;;;;;;;0.70;0.70;;;;;;;;;;5077628;28;20212;-63
2023/01/15 09:57:51;;;;;;;1.30;0.53;;;;;;;;;;5077706;28;20642;-62
2023/01/15 10:00:20;;;;;;;0.57;0.50;;;;;;;;;;5077640;28;20212;-62
2023/01/15 10:02:50;;;;;;;0.60;0.60;;;;;;;;;;5077664;28;20219;-62
2023/01/15 10:05:19;;;;;;;1.17;0.60;;;;;;;;;;5077565;28;20210;-62
2023/01/15 10:07:53;;;;;;;0.60;0.60;;;;;;;;;;5077619;28;20207;-62
2023/01/15 10:10:24;;;;;;;0.80;0.80;;;;;;;;;;5077567;28;20209;-62
2023/01/15 10:12:57;;;;;;;0.77;0.77;;;;;;;;;;5077486;28;20246;-62
2023/01/15 10:15:36;;;;;;;1.20;0.80;;;;;;;;;;5077547;28;20201;-62
2023/01/15 10:18:06;;;;;;;1.00;1.00;;;;;;;;;;5077822;28;20289;-62
2023/01/15 10:20:49;;;;;;;0.90;0.90;;;;;;;;;;5077634;28;20229;-62
2023/01/15 10:23:26;;;;;;;1.00;1.00;;;;;;;;;;5077488;28;20230;-62
2023/01/15 10:25:57;;;;;;;1.37;0.80;;;;;;;;;;5077478;28;20201;-62
2023/01/15 10:28:29;;;;;;;1.10;1.00;;;;;;;;;;5077386;28;20576;-62
2023/01/15 10:31:00;;;;;;;5.07;0.90;;;;;;;;;;5077727;28;20210;-62
2023/01/15 10:33:34;;;;;;;0.50;0.50;;;;;;;;;;5080690;28;20608;-62
2023/01/15 10:36:04;;;;;;;0.70;0.70;;;;;;;;;;5081392;28;20240;-62
2023/01/15 10:38:34;;;;;;;0.70;0.70;;;;;;;;;;5081224;28;20210;-62
2023/01/15 10:41:12;;;;;;;0.87;0.60;;;;;;;;;;5081447;28;20292;-62
2023/01/15 10:43:46;;;;;;;0.53;0.53;;;;;;;;;;5080339;28;20268;-62
2023/01/15 10:46:16;;;;;;;0.53;0.50;;;;;;;;;;5081537;28;20206;-62
2023/01/15 10:48:45;;;;;;;0.70;0.70;;;;;;;;;;5081091;28;20210;-62
2023/01/15 10:51:15;;;;;;;1.37;1.00;;;;;;;;;;5081137;28;20289;-62
2023/01/15 10:53:46;;;;;;;1.10;0.77;;;;;;;;;;5080911;28;20226;-62
2023/01/15 10:56:16;;;;;;;0.70;0.70;;;;;;;;;;5081100;28;20212;-62
2023/01/15 10:58:48;;;;;;;0.60;0.60;;;;;;;;;;5081030;28;20212;-62
2023/01/15 11:01:20;;;;;;;0.67;0.67;;;;;;;;;;5080681;28;20206;-62
2023/01/15 11:03:48;;;;;;;0.67;0.60;;;;;;;;;;5080594;28;20743;-62
2023/01/15 11:06:17;;;;;;;0.60;0.60;;;;;;;;;;5080556;28;20244;-62
2023/01/15 11:08:47;;;;;;;0.80;0.80;;;;;;;;;;5080512;28;20269;-62
2023/01/15 11:19:35;;;;;;;0.70;0.70;;;;;;;;;;5080849;28;20213;-62
2023/01/15 11:20:12;;;;;;;1.27;0.67;;;;;;;;;;5080616;28;20210;-62
2023/01/15 11:22:40;;;;;;;0.90;0.90;;;;;;;;;;5068009;28;20225;-62
2023/01/15 11:25:11;;;;;;;0.67;0.67;;;;;;;;;;5080056;28;20317;-62
2023/01/15 11:27:39;;;;;;;0.80;0.80;;;;;;;;;;5080339;28;20202;-62
2023/01/15 11:30:22;;;;;;;1.10;0.70;;;;;;;;;;5080427;28;20245;-62
2023/01/15 11:32:56;;;;;;;0.60;0.60;;;;;;;;;;5080479;28;20226;-62
2023/01/15 11:35:24;;;;;;;0.60;0.53;;;;;;;;;;5079987;28;20238;-62
2023/01/15 11:38:02;;;;;;;0.80;0.80;;;;;;;;;;5080177;28;20272;-62
2023/01/15 11:40:30;;;;;;;1.60;1.10;;;;;;;;;;5079872;28;20234;-62
2023/01/15 11:51:28;;;;;;;0.70;0.70;;;;;;;;;;5080026;28;20208;-62
2023/01/15 11:54:00;;;;;;;0.73;0.73;;;;;;;;;;5079593;28;20257;-62
2023/01/15 11:56:30;;;;;;;0.60;0.60;;;;;;;;;;5080078;28;20206;-62
2023/01/15 11:58:59;;;;;;;3.63;1.57;;;;;;;;;;5080018;28;20234;-62
2023/01/15 12:01:29;;;;;;;0.73;0.73;;;;;;;;;;5079839;28;20233;-62
2023/01/15 12:03:59;;;;;;;1.67;1.17;;;;;;;;;;5079815;28;20251;-62
2023/01/15 12:06:27;;;;;;;0.70;0.70;;;;;;;;;;5079562;28;20661;-62
2023/01/15 12:08:59;;;;;;;0.80;0.80;;;;;;;;;;5079293;28;20217;-62
2023/01/15 12:11:31;;;;;;;0.73;0.60;;;;;;;;;;5079647;28;20603;-62
2023/01/15 12:14:07;;;;;;;0.60;0.60;;;;;;;;;;5079675;28;20234;-62
2023/01/15 12:16:39;;;;;;;0.60;0.60;;;;;;;;;;5079435;28;20727;-61
2023/01/15 12:19:12;;;;;;;0.70;0.70;;;;;;;;;;5079226;28;20256;-62
2023/01/15 12:21:58;;;;;;;0.67;0.67;;;;;;;;;;5079622;28;20293;-62
2023/01/15 12:24:33;;;;;;;1.03;1.03;;;;;;;;;;5079162;28;20321;-62
2023/01/15 12:27:25;;;;;;;0.80;0.80;;;;;;;;;;5079475;28;20214;-62
2023/01/15 12:29:55;;;;;;;1.00;0.80;;;;;;;;;;5073675;28;20206;-62
2023/01/15 12:32:24;;;;;;;1.20;0.80;;;;;;;;;;5079504;28;20210;-62
2023/01/15 12:34:55;;;;;;;0.70;0.70;;;;;;;;;;5078811;28;20275;-62
2023/01/15 12:37:25;;;;;;;1.23;1.13;;;;;;;;;;5079055;28;20245;-62
2023/01/15 12:39:56;;;;;;;1.03;1.00;;;;;;;;;;5079134;28;20202;-62
2023/01/15 12:45:12;;;;;;;1.20;0.93;;;;;;;;;;5078707;28;20723;-62
2023/01/15 12:47:45;;;;;;;1.17;1.00;;;;;;;;;;5079120;28;20206;-62
2023/01/15 12:50:28;;;;;;;1.03;1.03;;;;;;;;;;5078682;28;20212;-62
2023/01/15 12:52:59;;;;;;;0.80;0.73;;;;;;;;;;5078618;28;20226;-62
2023/01/15 12:55:29;;;;;;;2.27;1.00;;;;;;;;;;5078215;28;20229;-62
2023/01/15 12:57:59;;;;;;;1.70;1.03;;;;;;;;;;5078818;28;20236;-62
2023/01/15 13:00:30;;;;;;;0.83;0.63;;;;;;;;;;5078501;28;20615;-62
2023/01/15 13:03:03;;;;;;;1.40;0.93;;;;;;;;;;5078362;28;20271;-62
2023/01/15 13:05:34;;;;;;;1.00;1.00;;;;;;;;;;5078290;28;20249;-62
2023/01/15 13:08:05;;;;;;;0.90;0.90;;;;;;;;;;5078498;28;20657;-62
2023/01/15 13:10:35;;;;;;;1.10;1.00;;;;;;;;;;5078171;28;20680;-62
2023/01/15 13:13:13;;;;;;;0.90;0.90;;;;;;;;;;5078322;28;20665;-62
2023/01/15 13:15:44;;;;;;;0.73;0.73;;;;;;;;;;5078221;28;20275;-62
2023/01/15 13:18:18;;;;;;;0.60;0.60;;;;;;;;;;5078318;28;20260;-62
2023/01/15 13:20:50;;;;;;;0.90;0.80;;;;;;;;;;5078248;28;20202;-62
2023/01/15 13:23:24;;;;;;;2.47;1.20;;;;;;;;;;5077880;28;20570;-62
2023/01/15 13:26:04;;;;;;;0.83;0.83;;;;;;;;;;5078039;28;20685;-62
2023/01/15 13:28:39;;;;;;;1.50;1.40;;;;;;;;;;5078166;28;20238;-62
2023/01/15 13:31:13;;;;;;;1.40;1.30;;;;;;;;;;5078082;28;20660;-62
2023/01/15 13:33:43;;;;;;;1.17;1.07;;;;;;;;;;5077763;28;20242;-62
2023/01/15 13:36:15;;;;;;;2.50;1.40;;;;;;;;;;5078150;28;20206;-62
2023/01/15 13:38:45;;;;;;;1.63;1.23;;;;;;;;;;5077832;28;20568;-62
2023/01/15 13:42:30;;;;;;;1.63;1.30;;;;;;;;;;5077872;28;20244;-62
2023/01/15 13:44:04;;;;;;;2.57;1.20;;;;;;;;;;5067218;28;20233;-62
2023/01/15 13:46:32;;;;;;;1.33;1.23;;;;;;;;;;5077893;28;20230;-62
2023/01/15 13:49:00;;;;;;;1.20;1.20;;;;;;;;;;5078103;28;20265;-62
2023/01/15 13:51:36;;;;;;;1.50;1.40;;;;;;;;;;5077949;28;20202;-62
2023/01/15 13:54:04;;;;;;;1.47;1.07;;;;;;;;;;5077402;28;20252;-62
2023/01/15 13:56:34;;;;;;;1.00;1.00;;;;;;;;;;5077952;28;20198;-62
2023/01/15 13:59:04;;;;;;;0.83;0.83;;;;;;;;;;5077749;28;20213;-61
2023/01/15 14:01:33;;;;;;;2.10;1.17;;;;;;;;;;5077574;28;20294;-62
2023/01/15 14:04:03;;;;;;;0.97;0.93;;;;;;;;;;5077522;28;20217;-62
2023/01/15 14:06:40;;;;;;;0.87;0.87;;;;;;;;;;5077091;28;20233;-62
2023/01/15 14:09:12;;;;;;;0.97;0.90;;;;;;;;;;5077455;28;20216;-62
2023/01/15 14:11:46;;;;;;;1.37;1.00;;;;;;;;;;5077920;28;20217;-62
2023/01/15 14:14:24;;;;;;;1.30;0.80;;;;;;;;;;5077470;28;20581;-62
2023/01/15 14:16:57;;;;;;;1.10;1.00;;;;;;;;;;5077612;28;20210;-61
2023/01/15 14:19:30;;;;;;;0.90;0.90;;;;;;;;;;5077353;28;20661;-62
2023/01/15 14:22:08;;;;;;;0.80;0.80;;;;;;;;;;5077739;28;20213;-62
2023/01/15 14:24:50;;;;;;;1.50;0.70;;;;;;;;;;5077353;28;20275;-62
2023/01/15 14:27:24;;;;;;;1.30;0.93;;;;;;;;;;5076561;28;20206;-62
2023/01/15 14:30:03;;;;;;;1.47;0.80;;;;;;;;;;5077486;28;20679;-62
2023/01/15 14:32:35;;;;;;;0.83;0.83;;;;;;;;;;5077310;28;20241;-62
2023/01/15 14:35:03;;;;;;;0.97;0.97;;;;;;;;;;5077136;28;20637;-62
2023/01/15 14:37:36;;;;;;;1.70;1.00;;;;;;;;;;5077693;28;20210;-63
2023/01/15 14:40:05;;;;;;;1.27;1.10;;;;;;;;;;5077011;28;20573;-62
2023/01/15 14:45:24;;;;;;;1.10;1.00;;;;;;;;;;5064211;28;20823;-62
2023/01/15 14:47:52;;;;;;;3.07;1.40;;;;;;;;;;5077145;28;20293;-62
2023/01/15 14:50:30;;;;;;;2.83;0.90;;;;;;;;;;5077130;28;20688;-62
2023/01/15 14:53:01;;;;;;;1.07;0.90;;;;;;;;;;5077373;28;20265;-62
2023/01/15 14:55:30;;;;;;;2.43;0.97;;;;;;;;;;5076985;28;20202;-62
2023/01/15 14:58:00;;;;;;;1.93;1.07;;;;;;;;;;5077136;28;20245;-62
2023/01/15 15:00:31;;;;;;;2.27;1.00;;;;;;;;;;5076949;28;20297;-62
2023/01/15 15:03:01;;;;;;;0.90;0.77;;;;;;;;;;5076914;28;20723;-62
2023/01/15 15:05:31;;;;;;;1.03;0.90;;;;;;;;;;5076847;28;20230;-62
2023/01/15 15:08:01;;;;;;;0.80;0.80;;;;;;;;;;5077290;28;20237;-63
2023/01/15 15:10:32;;;;;;;1.23;1.00;;;;;;;;;;5077195;28;20206;-62
2023/01/15 15:13:04;;;;;;;3.00;0.93;;;;;;;;;;5077017;28;20781;-62
2023/01/15 15:15:37;;;;;;;1.23;0.77;;;;;;;;;;5077243;28;20290;-62
2023/01/15 15:18:09;;;;;;;2.37;1.30;;;;;;;;;;5078143;28;20577;-62
2023/01/15 15:20:43;;;;;;;2.77;1.23;;;;;;;;;;5080299;28;20214;-62
2023/01/15 15:23:15;;;;;;;1.83;1.10;;;;;;;;;;5080100;28;20312;-62
2023/01/15 15:25:46;;;;;;;1.30;1.20;;;;;;;;;;5080551;28;20234;-62
2023/01/15 15:28:14;;;;;;;3.70;1.10;;;;;;;;;;5080411;28;20252;-62
2023/01/15 15:30:43;;;;;;;1.63;1.10;;;;;;;;;;5080274;28;20600;-62
2023/01/15 15:33:16;;;;;;;3.10;1.27;;;;;;;;;;5079920;28;20222;-63
2023/01/15 15:35:46;;;;;;;0.90;0.90;;;;;;;;;;5080456;28;20206;-62
2023/01/15 15:38:17;;;;;;;2.03;1.30;;;;;;;;;;5080384;28;20210;-61
2023/01/15 15:40:46;;;;;;;1.67;1.33;;;;;;;;;;5080427;28;20210;-62
2023/01/15 15:48:52;;;;;;;1.70;1.60;;;;;;;;;;5080016;28;20572;-62